Temp: 5.9°C   Baro: 996.2mb
  Wind: 2.0mph   Dir: E (83°)
  Rain: 0.2mm (0.0mm/hr)
  Solar: 0W/m2  Hum: 92%
 
Bath Spa Weather Historical Data
Daily Summary for July 12, 2019 Units:  Both    English   Metric
Next Day »
Daily Weekly Monthly Yearly Custom
  High: Low: Average:
Temperature: 75.4 °F /  24.1 °C 60.3 °F /  15.7 °C 66.7 °F /  19.3 °C
Dew Point: 59.7 °F /  15.4 °C 52.7 °F /  11.5 °C 57.2 °F /  14 °C
Humidity: 93% 52% 73%
Wind Speed: 15mph /  24.1km/h - 3.9mph /  6.2km/h
Wind Gust: 15mph /  24.1km/h - -
Wind direction- - West
Pressure: 30.2 in /  1020.9 hPa 29.9 in /  1012.8 hPa -
Precipitation: 0.02 in /  0.5 mm    
Historical Graphs
 
 
Tabular Data for July 12, 2019
Time Temperature Dew Point Pressure Wind direction Wind Speed Wind Gust Humidity Rainfall Rate (Hourly) solar
00:04 62.2 °F /  16.8 °C 57 °F /  13.9 °C 29.9in /  1013.1hPa WNW 2.9mph /  4.7km/h 7mph /  11.3km/h 83% 0in /  0.0mm 0.00 W/m2
00:09 62.2 °F /  16.8 °C 57 °F /  13.9 °C 29.9in /  1013.1hPa WNW 2mph /  3.2km/h 7mph /  11.3km/h 83% 0in /  0.0mm 0.00 W/m2
00:14 62.2 °F /  16.8 °C 57.4 °F /  14.1 °C 29.9in /  1013.1hPa WNW 2mph /  3.2km/h 4mph /  6.4km/h 84% 0in /  0.0mm 0.00 W/m2
00:19 62.2 °F /  16.8 °C 57.4 °F /  14.1 °C 29.9in /  1013.1hPa WNW 2mph /  3.2km/h 2mph /  3.2km/h 84% 0in /  0.0mm 0.00 W/m2
00:24 62.2 °F /  16.8 °C 57.4 °F /  14.1 °C 29.9in /  1013.1hPa WNW 2mph /  3.2km/h 5mph /  8.0km/h 84% 0in /  0.0mm 0.00 W/m2
00:29 62.1 °F /  16.7 °C 57.2 °F /  14.0 °C 29.9in /  1013.1hPa WNW 2mph /  3.2km/h 5mph /  8.0km/h 84% 0in /  0.0mm 0.00 W/m2
00:34 62.1 °F /  16.7 °C 57.2 °F /  14.0 °C 29.9in /  1013.1hPa West 0.9mph /  1.4km/h 7mph /  11.3km/h 84% 0in /  0.0mm 0.00 W/m2
00:39 61.9 °F /  16.6 °C 57.4 °F /  14.1 °C 29.9in /  1013.1hPa West 4mph /  6.4km/h 6mph /  9.7km/h 85% 0in /  0.0mm 0.00 W/m2
00:44 61.7 °F /  16.5 °C 57.2 °F /  14.0 °C 29.9in /  1012.8hPa WSW 6mph /  9.7km/h 6mph /  9.7km/h 85% 0in /  0.0mm 0.00 W/m2
00:49 61.7 °F /  16.5 °C 57.2 °F /  14.0 °C 29.9in /  1013.1hPa West 4mph /  6.4km/h 6mph /  9.7km/h 85% 0in /  0.0mm 0.00 W/m2
00:54 61.7 °F /  16.5 °C 57.4 °F /  14.1 °C 29.9in /  1013.1hPa WNW 2.9mph /  4.7km/h 7mph /  11.3km/h 86% 0in /  0.0mm 0.00 W/m2
00:59 61.7 °F /  16.5 °C 57.4 °F /  14.1 °C 29.9in /  1013.1hPa West 0.9mph /  1.4km/h 4mph /  6.4km/h 86% 0in /  0.0mm 0.00 W/m2
01:04 61.7 °F /  16.5 °C 57.4 °F /  14.1 °C 29.9in /  1013.1hPa WNW 0.9mph /  1.4km/h 4mph /  6.4km/h 86% 0in /  0.0mm 0.00 W/m2
01:09 61.7 °F /  16.5 °C 57.4 °F /  14.1 °C 29.9in /  1013.1hPa West 6mph /  9.7km/h 6mph /  9.7km/h 86% 0in /  0.0mm 0.00 W/m2
01:14 61.9 °F /  16.6 °C 57.6 °F /  14.2 °C 29.9in /  1012.8hPa WSW 8.1mph /  13.0km/h 8mph /  12.9km/h 86% 0in /  0.0mm 0.00 W/m2
01:19 62.1 °F /  16.7 °C 57.7 °F /  14.3 °C 29.9in /  1013.1hPa West 2mph /  3.2km/h 7mph /  11.3km/h 86% 0in /  0.0mm 0.00 W/m2
01:24 62.1 °F /  16.7 °C 57.7 °F /  14.3 °C 29.9in /  1012.8hPa West 6mph /  9.7km/h 6mph /  9.7km/h 86% 0in /  0.0mm 0.00 W/m2
01:29 62.1 °F /  16.7 °C 57.7 °F /  14.3 °C 29.9in /  1012.8hPa West 4mph /  6.4km/h 5mph /  8.0km/h 86% 0in /  0.0mm 0.00 W/m2
01:34 62.1 °F /  16.7 °C 57.7 °F /  14.3 °C 29.9in /  1012.8hPa West 2.9mph /  4.7km/h 7mph /  11.3km/h 86% 0in /  0.0mm 0.00 W/m2
01:39 62.1 °F /  16.7 °C 57.7 °F /  14.3 °C 29.9in /  1012.8hPa West 4.9mph /  7.9km/h 6mph /  9.7km/h 86% 0in /  0.0mm 0.00 W/m2
01:44 62.1 °F /  16.7 °C 58.1 °F /  14.5 °C 29.9in /  1012.8hPa West 2mph /  3.2km/h 4mph /  6.4km/h 87% 0in /  0.0mm 0.00 W/m2
01:49 62.1 °F /  16.7 °C 58.1 °F /  14.5 °C 29.9in /  1012.8hPa West 4mph /  6.4km/h 4mph /  6.4km/h 87% 0in /  0.0mm 0.00 W/m2
01:54 62.1 °F /  16.7 °C 58.1 °F /  14.5 °C 29.9in /  1012.8hPa West 4.9mph /  7.9km/h 6mph /  9.7km/h 87% 0in /  0.0mm 0.00 W/m2
01:59 62.1 °F /  16.7 °C 58.1 °F /  14.5 °C 29.9in /  1012.8hPa West 2.9mph /  4.7km/h 7mph /  11.3km/h 87% 0in /  0.0mm 0.00 W/m2
02:04 62.1 °F /  16.7 °C 58.1 °F /  14.5 °C 29.9in /  1012.8hPa West 2mph /  3.2km/h 5mph /  8.0km/h 87% 0in /  0.0mm 0.00 W/m2
02:09 62.1 °F /  16.7 °C 58.1 °F /  14.5 °C 29.9in /  1012.8hPa WNW 0.9mph /  1.4km/h 5mph /  8.0km/h 87% 0in /  0.0mm 0.00 W/m2
02:14 62.1 °F /  16.7 °C 58.1 °F /  14.5 °C 29.9in /  1012.8hPa West 4.9mph /  7.9km/h 6mph /  9.7km/h 87% 0in /  0.0mm 0.00 W/m2
02:19 62.2 °F /  16.8 °C 58.3 °F /  14.6 °C 29.9in /  1012.8hPa West 2.9mph /  4.7km/h 6mph /  9.7km/h 87% 0in /  0.0mm 0.00 W/m2
02:24 62.2 °F /  16.8 °C 58.3 °F /  14.6 °C 29.9in /  1012.8hPa West 2.9mph /  4.7km/h 5mph /  8.0km/h 87% 0in /  0.0mm 0.00 W/m2
02:29 62.1 °F /  16.7 °C 58.1 °F /  14.5 °C 29.9in /  1012.8hPa West 2mph /  3.2km/h 6mph /  9.7km/h 87% 0in /  0.0mm 0.00 W/m2
02:34 62.2 °F /  16.8 °C 58.6 °F /  14.8 °C 29.9in /  1012.8hPa West 4mph /  6.4km/h 5mph /  8.0km/h 88% 0in /  0.0mm 0.00 W/m2
02:39 62.1 °F /  16.7 °C 58.5 °F /  14.7 °C 29.9in /  1012.8hPa WNW 4mph /  6.4km/h 6mph /  9.7km/h 88% 0.01in /  0.3mm 0.00 W/m2
02:44 62.1 °F /  16.7 °C 58.8 °F /  14.9 °C 29.9in /  1012.8hPa WNW 6.9mph /  11.1km/h 7mph /  11.3km/h 89% 0.02in /  0.5mm 0.00 W/m2
02:49 61.7 °F /  16.5 °C 58.5 °F /  14.7 °C 29.9in /  1012.8hPa WNW 0.9mph /  1.4km/h 4mph /  6.4km/h 89% 0.02in /  0.5mm 0.00 W/m2
02:54 61.7 °F /  16.5 °C 58.5 °F /  14.7 °C 29.9in /  1012.8hPa West 2.9mph /  4.7km/h 6mph /  9.7km/h 89% 0.02in /  0.5mm 0.00 W/m2
02:59 61.5 °F /  16.4 °C 58.6 °F /  14.8 °C 29.9in /  1012.8hPa West 4.9mph /  7.9km/h 5mph /  8.0km/h 90% 0.02in /  0.5mm 0.00 W/m2
03:04 61.5 °F /  16.4 °C 58.6 °F /  14.8 °C 29.9in /  1012.8hPa West 2mph /  3.2km/h 4mph /  6.4km/h 90% 0.02in /  0.5mm 0.00 W/m2
03:09 61.3 °F /  16.3 °C 58.6 °F /  14.8 °C 29.9in /  1012.8hPa WNW 2mph /  3.2km/h 4mph /  6.4km/h 91% 0.02in /  0.5mm 0.00 W/m2
03:14 61.3 °F /  16.3 °C 58.6 °F /  14.8 °C 29.9in /  1012.8hPa WNW 0.9mph /  1.4km/h 4mph /  6.4km/h 91% 0.02in /  0.5mm 0.00 W/m2
03:19 61.3 °F /  16.3 °C 58.6 °F /  14.8 °C 29.9in /  1012.8hPa WNW 0.9mph /  1.4km/h 3mph /  4.8km/h 91% 0.02in /  0.5mm 0.00 W/m2
03:24 61.3 °F /  16.3 °C 58.6 °F /  14.8 °C 29.9in /  1012.8hPa Calm   3mph /  4.8km/h 91% 0.02in /  0.5mm 0.00 W/m2
03:29 61.3 °F /  16.3 °C 58.6 °F /  14.8 °C 29.9in /  1012.8hPa WNW 0.9mph /  1.4km/h 3mph /  4.8km/h 91% 0.02in /  0.5mm 0.00 W/m2
03:34 61.3 °F /  16.3 °C 58.6 °F /  14.8 °C 29.9in /  1013.1hPa Calm   3mph /  4.8km/h 91% 0.02in /  0.5mm 0.00 W/m2
03:39 61.3 °F /  16.3 °C 59 °F /  15.0 °C 29.9in /  1013.1hPa WNW 2mph /  3.2km/h 3mph /  4.8km/h 92% 0in /  0.0mm 0.00 W/m2
03:44 61.2 °F /  16.2 °C 58.8 °F /  14.9 °C 29.9in /  1013.1hPa Calm   2mph /  3.2km/h 92% 0in /  0.0mm 0.00 W/m2
03:49 61.2 °F /  16.2 °C 58.8 °F /  14.9 °C 29.9in /  1013.1hPa Calm     92% 0in /  0.0mm 0.00 W/m2
03:54 61.3 °F /  16.3 °C 59 °F /  15.0 °C 29.9in /  1012.8hPa Calm     92% 0in /  0.0mm 0.00 W/m2
03:59 61.3 °F /  16.3 °C 59 °F /  15.0 °C 29.9in /  1012.8hPa WNW 2.9mph /  4.7km/h 3mph /  4.8km/h 92% 0in /  0.0mm 0.00 W/m2
04:04 61.3 °F /  16.3 °C 59 °F /  15.0 °C 29.9in /  1012.8hPa WNW 0.9mph /  1.4km/h 3mph /  4.8km/h 92% 0in /  0.0mm 0.00 W/m2
04:09 61.3 °F /  16.3 °C 59 °F /  15.0 °C 29.9in /  1012.8hPa WNW 2mph /  3.2km/h 4mph /  6.4km/h 92% 0in /  0.0mm 0.00 W/m2
04:14 61.2 °F /  16.2 °C 58.8 °F /  14.9 °C 29.9in /  1012.8hPa West 5mph /  8.0km/h 5mph /  8.0km/h 92% 0in /  0.0mm 0.00 W/m2
04:19 61.2 °F /  16.2 °C 58.8 °F /  14.9 °C 29.9in /  1012.8hPa West 2.9mph /  4.7km/h 4mph /  6.4km/h 92% 0in /  0.0mm 0.00 W/m2
04:24 61.2 °F /  16.2 °C 59.2 °F /  15.1 °C 29.9in /  1012.8hPa Calm   1mph /  1.6km/h 93% 0in /  0.0mm 0.00 W/m2
04:29 61.2 °F /  16.2 °C 59.2 °F /  15.1 °C 29.9in /  1013.1hPa West 4mph /  6.4km/h 4mph /  6.4km/h 93% 0in /  0.0mm 0.00 W/m2
04:34 61 °F /  16.1 °C 59 °F /  15.0 °C 29.9in /  1013.1hPa West 2mph /  3.2km/h 4mph /  6.4km/h 93% 0in /  0.0mm 0.00 W/m2
04:39 60.8 °F /  16.0 °C 58.8 °F /  14.9 °C 29.9in /  1012.8hPa West 2.9mph /  4.7km/h 4mph /  6.4km/h 93% 0in /  0.0mm 0.00 W/m2
04:44 60.8 °F /  16.0 °C 58.8 °F /  14.9 °C 29.9in /  1012.8hPa West 2mph /  3.2km/h 3mph /  4.8km/h 93% 0in /  0.0mm 0.00 W/m2
04:49 60.8 °F /  16.0 °C 58.8 °F /  14.9 °C 29.9in /  1012.8hPa West 0.9mph /  1.4km/h 2mph /  3.2km/h 93% 0in /  0.0mm 0.00 W/m2
04:54 60.8 °F /  16.0 °C 58.8 °F /  14.9 °C 29.9in /  1013.1hPa Calm   2mph /  3.2km/h 93% 0in /  0.0mm 0.00 W/m2
04:59 60.8 °F /  16.0 °C 58.8 °F /  14.9 °C 29.9in /  1013.1hPa West 0.9mph /  1.4km/h 2mph /  3.2km/h 93% 0in /  0.0mm 0.00 W/m2
05:04 60.8 °F /  16.0 °C 58.8 °F /  14.9 °C 29.9in /  1013.1hPa West 2mph /  3.2km/h 2mph /  3.2km/h 93% 0in /  0.0mm 0.00 W/m2
05:09 60.8 °F /  16.0 °C 58.8 °F /  14.9 °C 29.9in /  1013.1hPa Calm   4mph /  6.4km/h 93% 0in /  0.0mm 0.00 W/m2
05:14 60.6 °F /  15.9 °C 58.6 °F /  14.8 °C 29.9in /  1013.1hPa West 0.9mph /  1.4km/h 3mph /  4.8km/h 93% 0in /  0.0mm 5.00 W/m2
05:19 60.6 °F /  15.9 °C 58.6 °F /  14.8 °C 29.9in /  1013.4hPa West 0.9mph /  1.4km/h 2mph /  3.2km/h 93% 0in /  0.0mm 7.00 W/m2
05:24 60.6 °F /  15.9 °C 58.6 °F /  14.8 °C 29.9in /  1013.4hPa Calm   6mph /  9.7km/h 93% 0in /  0.0mm 7.00 W/m2
05:29 60.6 °F /  15.9 °C 58.6 °F /  14.8 °C 29.9in /  1013.4hPa West 4mph /  6.4km/h 4mph /  6.4km/h 93% 0in /  0.0mm 9.00 W/m2
05:34 60.6 °F /  15.9 °C 58.6 °F /  14.8 °C 29.9in /  1013.4hPa West 2mph /  3.2km/h 3mph /  4.8km/h 93% 0in /  0.0mm 7.00 W/m2
05:39 60.6 °F /  15.9 °C 58.6 °F /  14.8 °C 29.9in /  1013.4hPa West 0.9mph /  1.4km/h 4mph /  6.4km/h 93% 0in /  0.0mm 9.00 W/m2
05:44 60.6 °F /  15.9 °C 58.6 °F /  14.8 °C 29.9in /  1013.4hPa West 2mph /  3.2km/h 3mph /  4.8km/h 93% 0in /  0.0mm 9.00 W/m2
05:49 60.6 °F /  15.9 °C 58.6 °F /  14.8 °C 29.9in /  1013.4hPa West 5mph /  8.0km/h 5mph /  8.0km/h 93% 0in /  0.0mm 11.00 W/m2
05:54 60.4 °F /  15.8 °C 58.5 °F /  14.7 °C 29.9in /  1013.4hPa West 2mph /  3.2km/h 4mph /  6.4km/h 93% 0in /  0.0mm 11.00 W/m2
05:59 60.4 °F /  15.8 °C 58.5 °F /  14.7 °C 29.9in /  1013.8hPa West 2.9mph /  4.7km/h 6mph /  9.7km/h 93% 0in /  0.0mm 21.00 W/m2
06:04 60.4 °F /  15.8 °C 58.5 °F /  14.7 °C 29.9in /  1013.8hPa WSW 6.9mph /  11.1km/h 7mph /  11.3km/h 93% 0in /  0.0mm 25.00 W/m2
06:09 60.6 °F /  15.9 °C 58.6 °F /  14.8 °C 29.9in /  1013.8hPa Calm   4mph /  6.4km/h 93% 0in /  0.0mm 28.00 W/m2
06:14 60.6 °F /  15.9 °C 58.6 °F /  14.8 °C 29.9in /  1013.8hPa WSW 4.9mph /  7.9km/h 5mph /  8.0km/h 93% 0in /  0.0mm 28.00 W/m2
06:19 60.6 °F /  15.9 °C 58.6 °F /  14.8 °C 29.9in /  1013.8hPa WNW 2mph /  3.2km/h 8mph /  12.9km/h 93% 0in /  0.0mm 23.00 W/m2
06:24 60.4 °F /  15.8 °C 58.5 °F /  14.7 °C 29.9in /  1013.8hPa West 4mph /  6.4km/h 7mph /  11.3km/h 93% 0in /  0.0mm 32.00 W/m2
06:29 60.4 °F /  15.8 °C 58.5 °F /  14.7 °C 29.9in /  1014.1hPa West 2.9mph /  4.7km/h 7mph /  11.3km/h 93% 0in /  0.0mm 30.00 W/m2
06:34 60.4 °F /  15.8 °C 58.5 °F /  14.7 °C 29.9in /  1014.1hPa West 4.9mph /  7.9km/h 6mph /  9.7km/h 93% 0in /  0.0mm 37.00 W/m2
06:39 60.3 °F /  15.7 °C 58.3 °F /  14.6 °C 29.9in /  1014.1hPa West 0.9mph /  1.4km/h 5mph /  8.0km/h 93% 0in /  0.0mm 39.00 W/m2
06:44 60.3 °F /  15.7 °C 58.3 °F /  14.6 °C 29.9in /  1014.1hPa Calm   3mph /  4.8km/h 93% 0in /  0.0mm 47.00 W/m2
06:49 60.3 °F /  15.7 °C 58.3 °F /  14.6 °C 29.9in /  1014.1hPa West 2.9mph /  4.7km/h 5mph /  8.0km/h 93% 0in /  0.0mm 62.00 W/m2
06:54 60.3 °F /  15.7 °C 58.3 °F /  14.6 °C 29.9in /  1014.1hPa Calm   2mph /  3.2km/h 93% 0in /  0.0mm 72.00 W/m2
06:59 60.3 °F /  15.7 °C 58.3 °F /  14.6 °C 29.9in /  1014.1hPa West 0.9mph /  1.4km/h 1mph /  1.6km/h 93% 0in /  0.0mm 93.00 W/m2
07:04 60.4 °F /  15.8 °C 58.5 °F /  14.7 °C 29.9in /  1014.1hPa West 2mph /  3.2km/h 4mph /  6.4km/h 93% 0in /  0.0mm 102.00 W/m2
07:09 60.4 °F /  15.8 °C 58.5 °F /  14.7 °C 29.9in /  1014.1hPa West 0.9mph /  1.4km/h 4mph /  6.4km/h 93% 0in /  0.0mm 123.00 W/m2
07:14 60.6 °F /  15.9 °C 58.6 °F /  14.8 °C 30in /  1014.4hPa West 0.9mph /  1.4km/h 3mph /  4.8km/h 93% 0in /  0.0mm 142.00 W/m2
07:19 60.8 °F /  16.0 °C 58.8 °F /  14.9 °C 30in /  1014.4hPa West 2mph /  3.2km/h 3mph /  4.8km/h 93% 0in /  0.0mm 139.00 W/m2
07:24 60.8 °F /  16.0 °C 58.8 °F /  14.9 °C 30in /  1014.4hPa Calm   2mph /  3.2km/h 93% 0in /  0.0mm 107.00 W/m2
07:29 61 °F /  16.1 °C 59 °F /  15.0 °C 30in /  1014.4hPa West 0.9mph /  1.4km/h 2mph /  3.2km/h 93% 0in /  0.0mm 218.00 W/m2
07:34 61.2 °F /  16.2 °C 59.2 °F /  15.1 °C 30in /  1014.4hPa West 2mph /  3.2km/h 4mph /  6.4km/h 93% 0in /  0.0mm 134.00 W/m2
07:39 61.5 °F /  16.4 °C 59.5 °F /  15.3 °C 30in /  1014.4hPa West 4mph /  6.4km/h 7mph /  11.3km/h 93% 0in /  0.0mm 320.00 W/m2
07:44 61.7 °F /  16.5 °C 59.7 °F /  15.4 °C 30in /  1014.4hPa WNW 2mph /  3.2km/h 6mph /  9.7km/h 93% 0in /  0.0mm 197.00 W/m2
07:49 62.1 °F /  16.7 °C 59.7 °F /  15.4 °C 30in /  1014.4hPa NW 9mph /  14.5km/h 9mph /  14.5km/h 92% 0in /  0.0mm 181.00 W/m2
07:54 62.1 °F /  16.7 °C 59.7 °F /  15.4 °C 30in /  1014.8hPa Calm   6mph /  9.7km/h 92% 0in /  0.0mm 158.00 W/m2
07:59 62.2 °F /  16.8 °C 59.5 °F /  15.3 °C 30in /  1014.4hPa West 4.9mph /  7.9km/h 5mph /  8.0km/h 91% 0in /  0.0mm 142.00 W/m2
08:04 62.1 °F /  16.7 °C 59.2 °F /  15.1 °C 30in /  1014.4hPa NW 6.9mph /  11.1km/h 9mph /  14.5km/h 90% 0in /  0.0mm 338.00 W/m2
08:09 62.2 °F /  16.8 °C 58.6 °F /  14.8 °C 30in /  1014.4hPa WNW 4mph /  6.4km/h 9mph /  14.5km/h 88% 0in /  0.0mm 246.00 W/m2
08:14 62.8 °F /  17.1 °C 58.5 °F /  14.7 °C 30in /  1014.4hPa WNW 4mph /  6.4km/h 6mph /  9.7km/h 86% 0in /  0.0mm 311.00 W/m2
08:19 63.1 °F /  17.3 °C 58.3 °F /  14.6 °C 30in /  1014.8hPa NW 2.9mph /  4.7km/h 7mph /  11.3km/h 84% 0in /  0.0mm 330.00 W/m2
08:24 63.7 °F /  17.6 °C 58.5 °F /  14.7 °C 30in /  1014.8hPa NW 4.9mph /  7.9km/h 7mph /  11.3km/h 83% 0in /  0.0mm 345.00 W/m2
08:29 63.7 °F /  17.6 °C 57.7 °F /  14.3 °C 30in /  1014.4hPa NW 4mph /  6.4km/h 9mph /  14.5km/h 81% 0in /  0.0mm 359.00 W/m2
08:34 64 °F /  17.8 °C 57.7 °F /  14.3 °C 30in /  1014.8hPa NW 6mph /  9.7km/h 7mph /  11.3km/h 80% 0in /  0.0mm 374.00 W/m2
08:39 64.6 °F /  18.1 °C 57.6 °F /  14.2 °C 30in /  1014.8hPa NNW 0.9mph /  1.4km/h 6mph /  9.7km/h 78% 0in /  0.0mm 399.00 W/m2
08:44 65.1 °F /  18.4 °C 57.7 °F /  14.3 °C 30in /  1014.8hPa North 8mph /  12.9km/h 8mph /  12.9km/h 77% 0in /  0.0mm 424.00 W/m2
08:49 64.9 °F /  18.3 °C 56.8 °F /  13.8 °C 30in /  1014.8hPa WNW 4.9mph /  7.9km/h 9mph /  14.5km/h 75% 0in /  0.0mm 429.00 W/m2
08:54 65.3 °F /  18.5 °C 56.8 °F /  13.8 °C 30in /  1014.8hPa North 0.9mph /  1.4km/h 8mph /  12.9km/h 74% 0in /  0.0mm 438.00 W/m2
08:59 65.7 °F /  18.7 °C 56.8 °F /  13.8 °C 30in /  1014.8hPa NW 2.9mph /  4.7km/h 10mph /  16.1km/h 73% 0in /  0.0mm 448.00 W/m2
09:04 65.8 °F /  18.8 °C 56.5 °F /  13.6 °C 30in /  1014.8hPa NNW 6mph /  9.7km/h 9mph /  14.5km/h 72% 0in /  0.0mm 457.00 W/m2
09:09 66.6 °F /  19.2 °C 57.2 °F /  14.0 °C 30in /  1014.8hPa North 6mph /  9.7km/h 6mph /  9.7km/h 72% 0in /  0.0mm 483.00 W/m2
09:14 66 °F /  18.9 °C 56.3 °F /  13.5 °C 30in /  1014.8hPa North 6mph /  9.7km/h 7mph /  11.3km/h 71% 0in /  0.0mm 499.00 W/m2
09:19 66.2 °F /  19.0 °C 55.8 °F /  13.2 °C 30in /  1014.8hPa NW 4.9mph /  7.9km/h 10mph /  16.1km/h 69% 0in /  0.0mm 473.00 W/m2
09:24 66.4 °F /  19.1 °C 56.3 °F /  13.5 °C 30in /  1014.8hPa NNW 4mph /  6.4km/h 9mph /  14.5km/h 70% 0.01in /  0.3mm 570.00 W/m2
09:29 66.2 °F /  19.0 °C 56.1 °F /  13.4 °C 30in /  1014.8hPa North 6.9mph /  11.1km/h 8mph /  12.9km/h 70% 0.01in /  0.3mm 548.00 W/m2
09:34 66.9 °F /  19.4 °C 56.5 °F /  13.6 °C 30in /  1014.8hPa North 2mph /  3.2km/h 7mph /  11.3km/h 69% 0.01in /  0.3mm 568.00 W/m2
09:39 67.1 °F /  19.5 °C 55.8 °F /  13.2 °C 30in /  1014.8hPa North 6mph /  9.7km/h 12mph /  19.3km/h 67% 0.01in /  0.3mm 591.00 W/m2
09:44 67.5 °F /  19.7 °C 56.1 °F /  13.4 °C 30in /  1014.8hPa NW 2mph /  3.2km/h 8mph /  12.9km/h 67% 0.01in /  0.3mm 183.00 W/m2
09:49 67.3 °F /  19.6 °C 55.9 °F /  13.3 °C 30in /  1014.8hPa North 4.9mph /  7.9km/h 8mph /  12.9km/h 67% 0.01in /  0.3mm 682.00 W/m2
09:54 67.3 °F /  19.6 °C 55.6 °F /  13.1 °C 30in /  1015.1hPa NW 4mph /  6.4km/h 8mph /  12.9km/h 66% 0.01in /  0.3mm 139.00 W/m2
09:59 67.1 °F /  19.5 °C 55.4 °F /  13.0 °C 30in /  1015.1hPa NW 6mph /  9.7km/h 8mph /  12.9km/h 66% 0.01in /  0.3mm 645.00 W/m2
10:04 67.5 °F /  19.7 °C 55.8 °F /  13.2 °C 30in /  1015.1hPa NW 8.1mph /  13.0km/h 10mph /  16.1km/h 66% 0.01in /  0.3mm 628.00 W/m2
10:09 67.8 °F /  19.9 °C 55.6 °F /  13.1 °C 30in /  1015.1hPa NNW 8.9mph /  14.3km/h 12mph /  19.3km/h 65% 0.01in /  0.3mm 649.00 W/m2
10:14 68 °F /  20.0 °C 55.4 °F /  13.0 °C 30in /  1015.1hPa Calm   9mph /  14.5km/h 64% 0.01in /  0.3mm 700.00 W/m2
10:19 68.4 °F /  20.2 °C 55.8 °F /  13.2 °C 30in /  1015.1hPa NW 2.9mph /  4.7km/h 11mph /  17.7km/h 64% 0.01in /  0.3mm 814.00 W/m2
10:24 68.4 °F /  20.2 °C 55.8 °F /  13.2 °C 30in /  1015.1hPa WNW 6mph /  9.7km/h 13mph /  20.9km/h 64% 0in /  0.0mm 209.00 W/m2
10:29 67.6 °F /  19.8 °C 55.9 °F /  13.3 °C 30in /  1015.1hPa NNW 2mph /  3.2km/h 11mph /  17.7km/h 66% 0in /  0.0mm 167.00 W/m2
10:34 68.2 °F /  20.1 °C 56.3 °F /  13.5 °C 30in /  1015.1hPa WNW 4mph /  6.4km/h 8mph /  12.9km/h 66% 0in /  0.0mm 747.00 W/m2
10:39 68.7 °F /  20.4 °C 56.5 °F /  13.6 °C 30in /  1015.1hPa WNW 6.9mph /  11.1km/h 9mph /  14.5km/h 65% 0in /  0.0mm 789.00 W/m2
10:44 68.5 °F /  20.3 °C 56.3 °F /  13.5 °C 30in /  1015.1hPa NW 8.9mph /  14.3km/h 9mph /  14.5km/h 65% 0in /  0.0mm 169.00 W/m2
10:49 68.7 °F /  20.4 °C 57.4 °F /  14.1 °C 30in /  1015.1hPa West 4mph /  6.4km/h 11mph /  17.7km/h 67% 0in /  0.0mm 763.00 W/m2
10:54 69.6 °F /  20.9 °C 57.4 °F /  14.1 °C 30in /  1015.1hPa NNW 6mph /  9.7km/h 9mph /  14.5km/h 65% 0in /  0.0mm 865.00 W/m2
10:59 69.4 °F /  20.8 °C 57.6 °F /  14.2 °C 30in /  1015.1hPa NW 4.9mph /  7.9km/h 9mph /  14.5km/h 66% 0in /  0.0mm 777.00 W/m2
11:04 68.7 °F /  20.4 °C 57.4 °F /  14.1 °C 30in /  1015.5hPa NW 2.9mph /  4.7km/h 11mph /  17.7km/h 67% 0in /  0.0mm 376.00 W/m2
11:09 69.3 °F /  20.7 °C 57.9 °F /  14.4 °C 30in /  1015.5hPa NW 4.9mph /  7.9km/h 8mph /  12.9km/h 67% 0in /  0.0mm 309.00 W/m2
11:14 69.3 °F /  20.7 °C 58.3 °F /  14.6 °C 30in /  1015.5hPa NNE 6mph /  9.7km/h 7mph /  11.3km/h 68% 0in /  0.0mm 990.00 W/m2
11:19 69.6 °F /  20.9 °C 58.1 °F /  14.5 °C 30in /  1015.5hPa NW 4.9mph /  7.9km/h 7mph /  11.3km/h 67% 0in /  0.0mm 997.00 W/m2
11:24 69.1 °F /  20.6 °C 57.7 °F /  14.3 °C 30in /  1015.5hPa NNW 2.9mph /  4.7km/h 10mph /  16.1km/h 67% 0in /  0.0mm 828.00 W/m2
11:29 70 °F /  21.1 °C 58.5 °F /  14.7 °C 30in /  1015.5hPa NW 4.9mph /  7.9km/h 6mph /  9.7km/h 67% 0in /  0.0mm 991.00 W/m2
11:34 70.2 °F /  21.2 °C 58.6 °F /  14.8 °C 30in /  1015.5hPa WNW 4.9mph /  7.9km/h 9mph /  14.5km/h 67% 0in /  0.0mm 255.00 W/m2
11:39 69.3 °F /  20.7 °C 58.3 °F /  14.6 °C 30in /  1015.5hPa NW 8.1mph /  13.0km/h 8mph /  12.9km/h 68% 0in /  0.0mm 816.00 W/m2
11:44 69.8 °F /  21.0 °C 58.3 °F /  14.6 °C 30in /  1015.5hPa NNW 0.9mph /  1.4km/h 10mph /  16.1km/h 67% 0in /  0.0mm 884.00 W/m2
11:49 70.2 °F /  21.2 °C 57.9 °F /  14.4 °C 30in /  1015.5hPa WNW 4.9mph /  7.9km/h 9mph /  14.5km/h 65% 0in /  0.0mm 923.00 W/m2
11:54 69.4 °F /  20.8 °C 57.6 °F /  14.2 °C 30in /  1015.5hPa West 2.9mph /  4.7km/h 7mph /  11.3km/h 66% 0in /  0.0mm 248.00 W/m2
11:59 69.4 °F /  20.8 °C 57.9 °F /  14.4 °C 30in /  1015.5hPa WNW 6.9mph /  11.1km/h 8mph /  12.9km/h 67% 0in /  0.0mm 287.00 W/m2
12:04 70.2 °F /  21.2 °C 57.9 °F /  14.4 °C 30in /  1015.5hPa NW 4mph /  6.4km/h 10mph /  16.1km/h 65% 0in /  0.0mm 422.00 W/m2
12:09 70.2 °F /  21.2 °C 58.3 °F /  14.6 °C 30in /  1015.5hPa North 4.9mph /  7.9km/h 12mph /  19.3km/h 66% 0in /  0.0mm 221.00 W/m2
12:14 69.8 °F /  21.0 °C 57.6 °F /  14.2 °C 30in /  1015.8hPa NNE 4.9mph /  7.9km/h 9mph /  14.5km/h 65% 0in /  0.0mm 171.00 W/m2
12:19 70.2 °F /  21.2 °C 58.3 °F /  14.6 °C 30in /  1015.8hPa WNW 6mph /  9.7km/h 10mph /  16.1km/h 66% 0in /  0.0mm 898.00 W/m2
12:24 70.9 °F /  21.6 °C 58.5 °F /  14.7 °C 30in /  1015.5hPa West 4.9mph /  7.9km/h 9mph /  14.5km/h 65% 0in /  0.0mm 940.00 W/m2
12:29 71.1 °F /  21.7 °C 58.3 °F /  14.6 °C 30in /  1015.5hPa Calm   6mph /  9.7km/h 64% 0in /  0.0mm 705.00 W/m2
12:34 71.4 °F /  21.9 °C 56.8 °F /  13.8 °C 30in /  1015.5hPa WNW 2.9mph /  4.7km/h 11mph /  17.7km/h 60% 0in /  0.0mm 371.00 W/m2
12:39 71.1 °F /  21.7 °C 56.8 °F /  13.8 °C 30in /  1015.5hPa NW 4.9mph /  7.9km/h 8mph /  12.9km/h 61% 0in /  0.0mm 329.00 W/m2
12:44 71.1 °F /  21.7 °C 57.4 °F /  14.1 °C 30in /  1015.5hPa NNW 6mph /  9.7km/h 11mph /  17.7km/h 62% 0in /  0.0mm 313.00 W/m2
12:49 70.5 °F /  21.4 °C 56.8 °F /  13.8 °C 30in /  1015.8hPa North 15mph /  24.1km/h 15mph /  24.1km/h 62% 0in /  0.0mm 216.00 W/m2
12:54 70.5 °F /  21.4 °C 57.4 °F /  14.1 °C 30in /  1015.8hPa NW 4.9mph /  7.9km/h 9mph /  14.5km/h 63% 0in /  0.0mm 237.00 W/m2
12:59 70.7 °F /  21.5 °C 57 °F /  13.9 °C 30in /  1015.8hPa NW 10.1mph /  16.3km/h 10mph /  16.1km/h 62% 0in /  0.0mm 933.00 W/m2
13:04 71.4 °F /  21.9 °C 57.2 °F /  14.0 °C 30in /  1015.5hPa West 6.9mph /  11.1km/h 11mph /  17.7km/h 61% 0in /  0.0mm 851.00 W/m2
13:09 72.3 °F /  22.4 °C 56.7 °F /  13.7 °C 30in /  1015.5hPa WNW 8.1mph /  13.0km/h 11mph /  17.7km/h 58% 0in /  0.0mm 884.00 W/m2
13:14 72.5 °F /  22.5 °C 57.4 °F /  14.1 °C 30in /  1015.8hPa West 4.9mph /  7.9km/h 7mph /  11.3km/h 59% 0in /  0.0mm 954.00 W/m2
13:19 74.1 °F /  23.4 °C 56.5 °F /  13.6 °C 30in /  1015.8hPa NW 2mph /  3.2km/h 7mph /  11.3km/h 54% 0in /  0.0mm 923.00 W/m2
13:24 73.8 °F /  23.2 °C 55.6 °F /  13.1 °C 30in /  1015.8hPa WNW 10.1mph /  16.3km/h 12mph /  19.3km/h 53% 0in /  0.0mm 360.00 W/m2
13:29 72.9 °F /  22.7 °C 55.2 °F /  12.9 °C 30in /  1015.8hPa NW 2.9mph /  4.7km/h 11mph /  17.7km/h 54% 0in /  0.0mm 246.00 W/m2
13:34 73.2 °F /  22.9 °C 56.7 °F /  13.7 °C 30in /  1015.8hPa North 10.1mph /  16.3km/h 13mph /  20.9km/h 56% 0in /  0.0mm 933.00 W/m2
13:39 73.8 °F /  23.2 °C 55.6 °F /  13.1 °C 30in /  1015.8hPa West 6.9mph /  11.1km/h 9mph /  14.5km/h 53% 0in /  0.0mm 339.00 W/m2
13:44 73.9 °F /  23.3 °C 57.2 °F /  14.0 °C 30in /  1015.8hPa Calm   7mph /  11.3km/h 56% 0in /  0.0mm 313.00 W/m2
13:49 73.6 °F /  23.1 °C 56.8 °F /  13.8 °C 30in /  1015.8hPa WNW 2mph /  3.2km/h 9mph /  14.5km/h 56% 0in /  0.0mm 199.00 W/m2
13:54 73 °F /  22.8 °C 55.9 °F /  13.3 °C 30in /  1015.8hPa NW 6mph /  9.7km/h 8mph /  12.9km/h 55% 0in /  0.0mm 322.00 W/m2
13:59 73.2 °F /  22.9 °C 56.7 °F /  13.7 °C 30in /  1015.8hPa WNW 2.9mph /  4.7km/h 12mph /  19.3km/h 56% 0in /  0.0mm 682.00 W/m2
14:04 73.4 °F /  23.0 °C 55.8 °F /  13.2 °C 30in /  1015.8hPa NW 2mph /  3.2km/h 12mph /  19.3km/h 54% 0in /  0.0mm 364.00 W/m2
14:09 73.8 °F /  23.2 °C 56.1 °F /  13.4 °C 30in /  1015.8hPa NW 4mph /  6.4km/h 13mph /  20.9km/h 54% 0in /  0.0mm 875.00 W/m2
14:14 73.9 °F /  23.3 °C 55.8 °F /  13.2 °C 30in /  1015.8hPa NW 2.9mph /  4.7km/h 9mph /  14.5km/h 53% 0in /  0.0mm 174.00 W/m2
14:19 74.3 °F /  23.5 °C 56.7 °F /  13.7 °C 30in /  1015.8hPa North 8.9mph /  14.3km/h 10mph /  16.1km/h 54% 0in /  0.0mm 911.00 W/m2
14:24 74.5 °F /  23.6 °C 55.8 °F /  13.2 °C 30in /  1015.8hPa NNW 0.9mph /  1.4km/h 10mph /  16.1km/h 52% 0in /  0.0mm 1023.00 W/m2
14:29 74.3 °F /  23.5 °C 55.6 °F /  13.1 °C 30in /  1015.8hPa NW 6mph /  9.7km/h 14mph /  22.5km/h 52% 0in /  0.0mm 223.00 W/m2
14:34 74.7 °F /  23.7 °C 57.4 °F /  14.1 °C 30in /  1015.8hPa NNE 14.1mph /  22.7km/h 14mph /  22.5km/h 55% 0in /  0.0mm 868.00 W/m2
14:39 75.4 °F /  24.1 °C 57 °F /  13.9 °C 30in /  1015.8hPa NNW 4mph /  6.4km/h 9mph /  14.5km/h 53% 0in /  0.0mm 881.00 W/m2
14:44 74.5 °F /  23.6 °C 56.3 °F /  13.5 °C 30in /  1016.1hPa NNE 8.1mph /  13.0km/h 12mph /  19.3km/h 53% 0in /  0.0mm 967.00 W/m2
14:49 73.4 °F /  23.0 °C 56.7 °F /  13.7 °C 30in /  1016.1hPa NNW 10.1mph /  16.3km/h 13mph /  20.9km/h 56% 0in /  0.0mm 271.00 W/m2
14:54 73.2 °F /  22.9 °C 57 °F /  13.9 °C 30in /  1016.1hPa WNW 6.9mph /  11.1km/h 11mph /  17.7km/h 57% 0in /  0.0mm 246.00 W/m2
14:59 73.2 °F /  22.9 °C 56.7 °F /  13.7 °C 30in /  1016.1hPa WNW 2mph /  3.2km/h 8mph /  12.9km/h 56% 0in /  0.0mm 244.00 W/m2
15:04 72.9 °F /  22.7 °C 56.3 °F /  13.5 °C 30in /  1016.1hPa NW 2mph /  3.2km/h 9mph /  14.5km/h 56% 0in /  0.0mm 171.00 W/m2
15:09 72.5 °F /  22.5 °C 56.5 °F /  13.6 °C 30in /  1016.1hPa NNW 6mph /  9.7km/h 9mph /  14.5km/h 57% 0in /  0.0mm 332.00 W/m2
15:14 72.9 °F /  22.7 °C 56.7 °F /  13.7 °C 30in /  1016.1hPa NNW 2mph /  3.2km/h 8mph /  12.9km/h 57% 0in /  0.0mm 327.00 W/m2
15:19 72.9 °F /  22.7 °C 56.3 °F /  13.5 °C 30in /  1016.1hPa NNE 4.9mph /  7.9km/h 10mph /  16.1km/h 56% 0in /  0.0mm 186.00 W/m2
15:24 72.9 °F /  22.7 °C 56.3 °F /  13.5 °C 30in /  1016.1hPa NNW 2.9mph /  4.7km/h 8mph /  12.9km/h 56% 0in /  0.0mm 223.00 W/m2
15:29 73 °F /  22.8 °C 56.5 °F /  13.6 °C 30in /  1016.1hPa NW 6mph /  9.7km/h 10mph /  16.1km/h 56% 0in /  0.0mm 800.00 W/m2
15:34 73.9 °F /  23.3 °C 56.8 °F /  13.8 °C 30in /  1016.1hPa NNW 4.9mph /  7.9km/h 11mph /  17.7km/h 55% 0in /  0.0mm 784.00 W/m2
15:39 74.1 °F /  23.4 °C 56.5 °F /  13.6 °C 30in /  1016.1hPa NW 10.1mph /  16.3km/h 12mph /  19.3km/h 54% 0in /  0.0mm 782.00 W/m2
15:44 74.1 °F /  23.4 °C 56.5 °F /  13.6 °C 30in /  1016.1hPa NNW 4.9mph /  7.9km/h 12mph /  19.3km/h 54% 0in /  0.0mm 798.00 W/m2
15:49 74.5 °F /  23.6 °C 56.7 °F /  13.7 °C 30in /  1016.1hPa NW 4.9mph /  7.9km/h 12mph /  19.3km/h 54% 0in /  0.0mm 761.00 W/m2
15:54 73.9 °F /  23.3 °C 56.3 °F /  13.5 °C 30in /  1016.1hPa Calm   12mph /  19.3km/h 54% 0in /  0.0mm 768.00 W/m2
15:59 75.2 °F /  24.0 °C 57.4 °F /  14.1 °C 30in /  1016.1hPa NW 6mph /  9.7km/h 15mph /  24.1km/h 54% 0in /  0.0mm 793.00 W/m2
16:04 74.8 °F /  23.8 °C 57 °F /  13.9 °C 30in /  1016.1hPa NNW 2.9mph /  4.7km/h 9mph /  14.5km/h 54% 0in /  0.0mm 840.00 W/m2
16:09 75 °F /  23.9 °C 56.1 °F /  13.4 °C 30in /  1016.1hPa NNW 4mph /  6.4km/h 13mph /  20.9km/h 52% 0in /  0.0mm 749.00 W/m2
16:14 74.3 °F /  23.5 °C 55.6 °F /  13.1 °C 30in /  1016.1hPa WNW 4mph /  6.4km/h 11mph /  17.7km/h 52% 0in /  0.0mm 155.00 W/m2
16:19 73.8 °F /  23.2 °C 56.1 °F /  13.4 °C 30in /  1016.1hPa WNW 6mph /  9.7km/h 10mph /  16.1km/h 54% 0in /  0.0mm 185.00 W/m2
16:24 74.1 °F /  23.4 °C 56.8 °F /  13.8 °C 30in /  1016.1hPa West 2mph /  3.2km/h 12mph /  19.3km/h 55% 0in /  0.0mm 199.00 W/m2
16:29 74.7 °F /  23.7 °C 57.4 °F /  14.1 °C 30in /  1016.1hPa NNE 4mph /  6.4km/h 6mph /  9.7km/h 55% 0in /  0.0mm 788.00 W/m2
16:34 75.4 °F /  24.1 °C 57.6 °F /  14.2 °C 30in /  1016.1hPa NW 8.9mph /  14.3km/h 12mph /  19.3km/h 54% 0in /  0.0mm 733.00 W/m2
16:39 75.4 °F /  24.1 °C 57 °F /  13.9 °C 30in /  1016.5hPa NW 10.1mph /  16.3km/h 12mph /  19.3km/h 53% 0in /  0.0mm 765.00 W/m2
16:44 75.2 °F /  24.0 °C 56.8 °F /  13.8 °C 30in /  1016.1hPa WNW 6mph /  9.7km/h 11mph /  17.7km/h 53% 0in /  0.0mm 737.00 W/m2
16:49 74.1 °F /  23.4 °C 56.8 °F /  13.8 °C 30in /  1016.5hPa North 12mph /  19.3km/h 12mph /  19.3km/h 55% 0in /  0.0mm 197.00 W/m2
16:54 73.8 °F /  23.2 °C 57.6 °F /  14.2 °C 30in /  1016.5hPa WNW 4mph /  6.4km/h 15mph /  24.1km/h 57% 0in /  0.0mm 714.00 W/m2
16:59 74.3 °F /  23.5 °C 57.6 °F /  14.2 °C 30in /  1016.5hPa WNW 14.1mph /  22.7km/h 14mph /  22.5km/h 56% 0in /  0.0mm 661.00 W/m2
17:04 74.7 °F /  23.7 °C 57.9 °F /  14.4 °C 30in /  1016.5hPa NW 6.9mph /  11.1km/h 11mph /  17.7km/h 56% 0in /  0.0mm 642.00 W/m2
17:09 74.8 °F /  23.8 °C 57.6 °F /  14.2 °C 30in /  1016.5hPa North 11mph /  17.7km/h 12mph /  19.3km/h 55% 0in /  0.0mm 613.00 W/m2
17:14 74.7 °F /  23.7 °C 57.9 °F /  14.4 °C 30in /  1016.5hPa North 6mph /  9.7km/h 15mph /  24.1km/h 56% 0in /  0.0mm 591.00 W/m2
17:19 74.5 °F /  23.6 °C 57.7 °F /  14.3 °C 30in /  1016.5hPa NNW 10.1mph /  16.3km/h 10mph /  16.1km/h 56% 0in /  0.0mm 571.00 W/m2
17:24 74.3 °F /  23.5 °C 57.6 °F /  14.2 °C 30in /  1016.5hPa NNE 8.1mph /  13.0km/h 9mph /  14.5km/h 56% 0in /  0.0mm 554.00 W/m2
17:29 74.3 °F /  23.5 °C 57 °F /  13.9 °C 30in /  1016.5hPa NNW 2.9mph /  4.7km/h 11mph /  17.7km/h 55% 0in /  0.0mm 559.00 W/m2
17:34 73.9 °F /  23.3 °C 57.2 °F /  14.0 °C 30in /  1016.5hPa WNW 8.1mph /  13.0km/h 11mph /  17.7km/h 56% 0in /  0.0mm 74.00 W/m2
17:39 72.5 °F /  22.5 °C 56.8 °F /  13.8 °C 30in /  1016.5hPa NNW 2mph /  3.2km/h 10mph /  16.1km/h 58% 0in /  0.0mm 91.00 W/m2
17:44 72.5 °F /  22.5 °C 56.8 °F /  13.8 °C 30in /  1016.5hPa NW 10.1mph /  16.3km/h 10mph /  16.1km/h 58% 0in /  0.0mm 517.00 W/m2
17:49 73 °F /  22.8 °C 56.8 °F /  13.8 °C 30in /  1016.5hPa NNW 4mph /  6.4km/h 11mph /  17.7km/h 57% 0in /  0.0mm 494.00 W/m2
17:54 73.4 °F /  23.0 °C 56.7 °F /  13.7 °C 30in /  1016.5hPa NW 6.9mph /  11.1km/h 12mph /  19.3km/h 56% 0in /  0.0mm 462.00 W/m2
17:59 73.6 °F /  23.1 °C 57.4 °F /  14.1 °C 30in /  1016.5hPa NW 8.9mph /  14.3km/h 13mph /  20.9km/h 57% 0in /  0.0mm 459.00 W/m2
18:04 74.3 °F /  23.5 °C 58.1 °F /  14.5 °C 30in /  1016.8hPa NW 8.1mph /  13.0km/h 9mph /  14.5km/h 57% 0in /  0.0mm 441.00 W/m2
18:09 74.3 °F /  23.5 °C 57.6 °F /  14.2 °C 30in /  1016.8hPa NNW 6mph /  9.7km/h 9mph /  14.5km/h 56% 0in /  0.0mm 427.00 W/m2
18:14 74.1 °F /  23.4 °C 56.8 °F /  13.8 °C 30in /  1016.8hPa NW 4.9mph /  7.9km/h 15mph /  24.1km/h 55% 0in /  0.0mm 413.00 W/m2
18:19 73.9 °F /  23.3 °C 57.2 °F /  14.0 °C 30in /  1016.8hPa NW 2.9mph /  4.7km/h 9mph /  14.5km/h 56% 0in /  0.0mm 403.00 W/m2
18:24 73.4 °F /  23.0 °C 56.7 °F /  13.7 °C 30in /  1016.8hPa North 4mph /  6.4km/h 7mph /  11.3km/h 56% 0in /  0.0mm 81.00 W/m2
18:29 72.5 °F /  22.5 °C 56.8 °F /  13.8 °C 30in /  1016.8hPa North 2mph /  3.2km/h 12mph /  19.3km/h 58% 0in /  0.0mm 404.00 W/m2
18:34 73 °F /  22.8 °C 56.8 °F /  13.8 °C 30in /  1016.8hPa NNW 8.1mph /  13.0km/h 12mph /  19.3km/h 57% 0in /  0.0mm 417.00 W/m2
18:39 73.2 °F /  22.9 °C 57 °F /  13.9 °C 30in /  1016.8hPa NW 2.9mph /  4.7km/h 10mph /  16.1km/h 57% 0in /  0.0mm 390.00 W/m2
18:44 73.4 °F /  23.0 °C 57.2 °F /  14.0 °C 30in /  1017.2hPa North 8.9mph /  14.3km/h 12mph /  19.3km/h 57% 0in /  0.0mm 367.00 W/m2
18:49 73 °F /  22.8 °C 57.4 °F /  14.1 °C 30in /  1017.2hPa NNW 6.9mph /  11.1km/h 15mph /  24.1km/h 58% 0in /  0.0mm 95.00 W/m2
18:54 72 °F /  22.2 °C 57.4 °F /  14.1 °C 30in /  1017.2hPa North 2.9mph /  4.7km/h 11mph /  17.7km/h 60% 0in /  0.0mm 83.00 W/m2
18:59 71.8 °F /  22.1 °C 57.6 °F /  14.2 °C 30.1in /  1017.5hPa NNW 4mph /  6.4km/h 13mph /  20.9km/h 61% 0in /  0.0mm 83.00 W/m2
19:04 71.8 °F /  22.1 °C 57.6 °F /  14.2 °C 30.1in /  1017.5hPa NW 4.9mph /  7.9km/h 6mph /  9.7km/h 61% 0in /  0.0mm 105.00 W/m2
19:09 71.6 °F /  22.0 °C 57.9 °F /  14.4 °C 30.1in /  1017.5hPa NNW 4mph /  6.4km/h 11mph /  17.7km/h 62% 0in /  0.0mm 98.00 W/m2
19:14 71.2 °F /  21.8 °C 57.9 °F /  14.4 °C 30.1in /  1017.8hPa NNW 6.9mph /  11.1km/h 12mph /  19.3km/h 63% 0in /  0.0mm 132.00 W/m2
19:19 71.4 °F /  21.9 °C 58.1 °F /  14.5 °C 30.1in /  1017.8hPa NNE 6mph /  9.7km/h 12mph /  19.3km/h 63% 0in /  0.0mm 262.00 W/m2
19:24 72.1 °F /  22.3 °C 58.8 °F /  14.9 °C 30.1in /  1017.8hPa NNW 0.9mph /  1.4km/h 7mph /  11.3km/h 63% 0in /  0.0mm 244.00 W/m2
19:29 71.8 °F /  22.1 °C 58.5 °F /  14.7 °C 30.1in /  1017.8hPa North 2mph /  3.2km/h 13mph /  20.9km/h 63% 0in /  0.0mm 236.00 W/m2
19:34 71.8 °F /  22.1 °C 58.5 °F /  14.7 °C 30.1in /  1017.8hPa NNW 8.9mph /  14.3km/h 12mph /  19.3km/h 63% 0in /  0.0mm 258.00 W/m2
19:39 72 °F /  22.2 °C 58.6 °F /  14.8 °C 30.1in /  1017.8hPa North 0.9mph /  1.4km/h 7mph /  11.3km/h 63% 0in /  0.0mm 250.00 W/m2
19:44 71.6 °F /  22.0 °C 58.3 °F /  14.6 °C 30.1in /  1017.8hPa NE 8.1mph /  13.0km/h 11mph /  17.7km/h 63% 0in /  0.0mm 220.00 W/m2
19:49 71.4 °F /  21.9 °C 58.6 °F /  14.8 °C 30.1in /  1017.8hPa NNE 2.9mph /  4.7km/h 7mph /  11.3km/h 64% 0in /  0.0mm 139.00 W/m2
19:54 71.1 °F /  21.7 °C 58.6 °F /  14.8 °C 30.1in /  1017.8hPa NW 4.9mph /  7.9km/h 12mph /  19.3km/h 65% 0in /  0.0mm 137.00 W/m2
19:59 70.7 °F /  21.5 °C 58.3 °F /  14.6 °C 30.1in /  1018.2hPa North 8.1mph /  13.0km/h 13mph /  20.9km/h 65% 0in /  0.0mm 63.00 W/m2
20:04 70.2 °F /  21.2 °C 58.3 °F /  14.6 °C 30.1in /  1018.2hPa NNW 4mph /  6.4km/h 9mph /  14.5km/h 66% 0in /  0.0mm 63.00 W/m2
20:09 69.6 °F /  20.9 °C 57.7 °F /  14.3 °C 30.1in /  1018.2hPa NNE 4.9mph /  7.9km/h 9mph /  14.5km/h 66% 0in /  0.0mm 114.00 W/m2
20:14 69.8 °F /  21.0 °C 57.9 °F /  14.4 °C 30.1in /  1018.2hPa North 2.9mph /  4.7km/h 6mph /  9.7km/h 66% 0in /  0.0mm 107.00 W/m2
20:19 70.2 °F /  21.2 °C 58.3 °F /  14.6 °C 30.1in /  1018.5hPa NE 4.9mph /  7.9km/h 8mph /  12.9km/h 66% 0in /  0.0mm 72.00 W/m2
20:24 69.8 °F /  21.0 °C 57.9 °F /  14.4 °C 30.1in /  1018.2hPa North 2.9mph /  4.7km/h 7mph /  11.3km/h 66% 0in /  0.0mm 60.00 W/m2
20:29 69.4 °F /  20.8 °C 57.9 °F /  14.4 °C 30.1in /  1018.5hPa Calm   4mph /  6.4km/h 67% 0in /  0.0mm 44.00 W/m2
20:34 69.1 °F /  20.6 °C 57.7 °F /  14.3 °C 30.1in /  1018.5hPa North 4mph /  6.4km/h 10mph /  16.1km/h 67% 0in /  0.0mm 37.00 W/m2
20:39 68.9 °F /  20.5 °C 57.9 °F /  14.4 °C 30.1in /  1018.5hPa NW 2.9mph /  4.7km/h 9mph /  14.5km/h 68% 0in /  0.0mm 44.00 W/m2
20:44 68.7 °F /  20.4 °C 57.7 °F /  14.3 °C 30.1in /  1018.5hPa WNW 2.9mph /  4.7km/h 9mph /  14.5km/h 68% 0in /  0.0mm 25.00 W/m2
20:49 68.5 °F /  20.3 °C 57.6 °F /  14.2 °C 30.1in /  1018.5hPa North 2.9mph /  4.7km/h 7mph /  11.3km/h 68% 0in /  0.0mm 18.00 W/m2
20:54 68.5 °F /  20.3 °C 57.6 °F /  14.2 °C 30.1in /  1018.8hPa NW 6.9mph /  11.1km/h 7mph /  11.3km/h 68% 0in /  0.0mm 16.00 W/m2
20:59 68 °F /  20.0 °C 57.4 °F /  14.1 °C 30.1in /  1018.8hPa WNW 2.9mph /  4.7km/h 5mph /  8.0km/h 69% 0in /  0.0mm 16.00 W/m2
21:04 67.8 °F /  19.9 °C 57.2 °F /  14.0 °C 30.1in /  1018.8hPa NNW 4mph /  6.4km/h 8mph /  12.9km/h 69% 0in /  0.0mm 16.00 W/m2
21:09 67.3 °F /  19.6 °C 56.8 °F /  13.8 °C 30.1in /  1018.8hPa NNW 2.9mph /  4.7km/h 10mph /  16.1km/h 69% 0in /  0.0mm 12.00 W/m2
21:14 67.1 °F /  19.5 °C 56.7 °F /  13.7 °C 30.1in /  1018.8hPa NW 12mph /  19.3km/h 12mph /  19.3km/h 69% 0in /  0.0mm 7.00 W/m2
21:19 66.7 °F /  19.3 °C 56.3 °F /  13.5 °C 30.1in /  1019.2hPa NW 6mph /  9.7km/h 9mph /  14.5km/h 69% 0in /  0.0mm 0.00 W/m2
21:24 66.4 °F /  19.1 °C 56.3 °F /  13.5 °C 30.1in /  1019.2hPa NNW 4.9mph /  7.9km/h 9mph /  14.5km/h 70% 0in /  0.0mm 0.00 W/m2
21:29 66.2 °F /  19.0 °C 56.1 °F /  13.4 °C 30.1in /  1019.2hPa West 4mph /  6.4km/h 6mph /  9.7km/h 70% 0in /  0.0mm 0.00 W/m2
21:34 65.8 °F /  18.8 °C 55.8 °F /  13.2 °C 30.1in /  1019.2hPa WNW 2mph /  3.2km/h 7mph /  11.3km/h 70% 0in /  0.0mm 0.00 W/m2
21:39 65.7 °F /  18.7 °C 55.9 °F /  13.3 °C 30.1in /  1019.5hPa Calm   4mph /  6.4km/h 71% 0in /  0.0mm 0.00 W/m2
21:44 65.3 °F /  18.5 °C 55.6 °F /  13.1 °C 30.1in /  1019.5hPa WNW 0.9mph /  1.4km/h 4mph /  6.4km/h 71% 0in /  0.0mm 0.00 W/m2
21:49 64.9 °F /  18.3 °C 55.4 °F /  13.0 °C 30.1in /  1019.9hPa NW 2mph /  3.2km/h 8mph /  12.9km/h 71% 0in /  0.0mm 0.00 W/m2
21:54 64.6 °F /  18.1 °C 55 °F /  12.8 °C 30.1in /  1019.9hPa Calm   3mph /  4.8km/h 71% 0in /  0.0mm 0.00 W/m2
21:59 64.4 °F /  18.0 °C 55.2 °F /  12.9 °C 30.1in /  1019.9hPa NW 2mph /  3.2km/h 4mph /  6.4km/h 72% 0in /  0.0mm 0.00 W/m2
22:04 64.2 °F /  17.9 °C 55 °F /  12.8 °C 30.1in /  1019.9hPa NW 2mph /  3.2km/h 4mph /  6.4km/h 72% 0in /  0.0mm 0.00 W/m2
22:09 64 °F /  17.8 °C 54.9 °F /  12.7 °C 30.1in /  1019.9hPa NW 0.9mph /  1.4km/h 2mph /  3.2km/h 72% 0in /  0.0mm 0.00 W/m2
22:14 63.9 °F /  17.7 °C 55 °F /  12.8 °C 30.1in /  1019.9hPa West 2.9mph /  4.7km/h 3mph /  4.8km/h 73% 0in /  0.0mm 0.00 W/m2
22:19 63.7 °F /  17.6 °C 54.9 °F /  12.7 °C 30.1in /  1019.9hPa West 2.9mph /  4.7km/h 3mph /  4.8km/h 73% 0in /  0.0mm 0.00 W/m2
22:24 63.5 °F /  17.5 °C 54.7 °F /  12.6 °C 30.1in /  1020.2hPa Calm   3mph /  4.8km/h 73% 0in /  0.0mm 0.00 W/m2
22:29 63.3 °F /  17.4 °C 54.5 °F /  12.5 °C 30.1in /  1020.2hPa Calm   2mph /  3.2km/h 73% 0in /  0.0mm 0.00 W/m2
22:34 63.3 °F /  17.4 °C 54.5 °F /  12.5 °C 30.1in /  1020.2hPa West 4mph /  6.4km/h 4mph /  6.4km/h 73% 0in /  0.0mm 0.00 W/m2
22:39 63.1 °F /  17.3 °C 54.3 °F /  12.4 °C 30.1in /  1020.2hPa West 0.9mph /  1.4km/h 4mph /  6.4km/h 73% 0in /  0.0mm 0.00 W/m2
22:44 62.6 °F /  17.0 °C 54.1 °F /  12.3 °C 30.1in /  1020.2hPa West 0.9mph /  1.4km/h 4mph /  6.4km/h 74% 0in /  0.0mm 0.00 W/m2
22:49 62.4 °F /  16.9 °C 54 °F /  12.2 °C 30.1in /  1020.5hPa West 2mph /  3.2km/h 6mph /  9.7km/h 74% 0in /  0.0mm 0.00 W/m2
22:54 62.2 °F /  16.8 °C 53.8 °F /  12.1 °C 30.1in /  1020.5hPa West 0.9mph /  1.4km/h 4mph /  6.4km/h 74% 0in /  0.0mm 0.00 W/m2
22:59 61.9 °F /  16.6 °C 53.4 °F /  11.9 °C 30.1in /  1020.5hPa West 2mph /  3.2km/h 5mph /  8.0km/h 74% 0in /  0.0mm 0.00 W/m2
23:04 61.7 °F /  16.5 °C 53.2 °F /  11.8 °C 30.1in /  1020.5hPa West 2mph /  3.2km/h 6mph /  9.7km/h 74% 0in /  0.0mm 0.00 W/m2
23:09 61.5 °F /  16.4 °C 53.6 °F /  12.0 °C 30.1in /  1020.5hPa West 2.9mph /  4.7km/h 5mph /  8.0km/h 75% 0in /  0.0mm 0.00 W/m2
23:14 61.5 °F /  16.4 °C 53.6 °F /  12.0 °C 30.1in /  1020.5hPa Calm   1mph /  1.6km/h 75% 0in /  0.0mm 0.00 W/m2
23:19 61.3 °F /  16.3 °C 53.4 °F /  11.9 °C 30.1in /  1020.5hPa Calm   1mph /  1.6km/h 75% 0in /  0.0mm 0.00 W/m2
23:24 61.2 °F /  16.2 °C 53.2 °F /  11.8 °C 30.2in /  1020.9hPa West 2mph /  3.2km/h 2mph /  3.2km/h 75% 0in /  0.0mm 0.00 W/m2
23:29 61 °F /  16.1 °C 53.1 °F /  11.7 °C 30.1in /  1020.5hPa Calm     75% 0in /  0.0mm 0.00 W/m2
23:34 60.8 °F /  16.0 °C 52.9 °F /  11.6 °C 30.2in /  1020.9hPa Calm   3mph /  4.8km/h 75% 0in /  0.0mm 0.00 W/m2
23:39 60.8 °F /  16.0 °C 52.9 °F /  11.6 °C 30.2in /  1020.9hPa WNW 2mph /  3.2km/h 2mph /  3.2km/h 75% 0in /  0.0mm 0.00 W/m2
23:44 60.6 °F /  15.9 °C 53.1 °F /  11.7 °C 30.2in /  1020.9hPa WNW 0.9mph /  1.4km/h 2mph /  3.2km/h 76% 0in /  0.0mm 0.00 W/m2
23:49 60.6 °F /  15.9 °C 53.1 °F /  11.7 °C 30.2in /  1020.9hPa Calm   2mph /  3.2km/h 76% 0in /  0.0mm 0.00 W/m2
23:54 60.4 °F /  15.8 °C 52.9 °F /  11.6 °C 30.2in /  1020.9hPa Calm     76% 0in /  0.0mm 0.00 W/m2
23:59 60.3 °F /  15.7 °C 52.7 °F /  11.5 °C 30.2in /  1020.9hPa Calm     76% 0in /  0.0mm 0.00 W/m2